Time;durP1;ratioP1;P1;durP2;ratioP2;P2;SDS_P1;SDS_P2;PMS_P1;PMS_P2;Temp;Humidity;BMP_temperature;BMP_pressure;BME280_temperature;BME280_humidity;BME280_pressure;Samples;Min_cycle;Max_cycle;Signal;HPM_P1;HPM_P2
2021/07/19 00:00:55;;;;;;;5.05;2.08;;;26.90;53.30;;;;;;5032211;28;20075;-61
2021/07/19 00:03:20;;;;;;;4.60;2.20;;;26.90;53.10;;;;;;5022823;28;20403;-61
2021/07/19 00:05:46;;;;;;;3.63;2.33;;;26.90;53.40;;;;;;5022122;28;20025;-61
2021/07/19 00:08:12;;;;;;;4.70;2.55;;;26.80;53.70;;;;;;5021084;28;20461;-61
2021/07/19 00:10:37;;;;;;;5.43;2.30;;;26.80;54.60;;;;;;5021628;28;20032;-61
2021/07/19 00:13:04;;;;;;;3.67;2.25;;;26.60;54.70;;;;;;5021202;28;20056;-61
2021/07/19 00:15:30;;;;;;;2.80;2.13;;;26.60;54.30;;;;;;5021679;28;20022;-62
2021/07/19 00:17:57;;;;;;;5.38;1.95;;;26.60;54.30;;;;;;5022798;28;20126;-61
2021/07/19 00:20:23;;;;;;;3.28;2.33;;;26.70;54.20;;;;;;5021434;28;20030;-61
2021/07/19 00:22:49;;;;;;;3.42;2.55;;;26.70;54.10;;;;;;5031373;28;20018;-61
2021/07/19 00:25:17;;;;;;;3.20;2.30;;;26.60;54.00;;;;;;5030253;28;20466;-61
2021/07/19 00:27:43;;;;;;;3.03;2.00;;;26.70;54.20;;;;;;5029865;28;20075;-61
2021/07/19 00:30:11;;;;;;;3.78;2.00;;;26.60;54.20;;;;;;5031879;28;20053;-61
2021/07/19 00:32:37;;;;;;;3.88;2.28;;;26.60;54.30;;;;;;5030163;28;20044;-61
2021/07/19 00:35:05;;;;;;;2.92;2.40;;;26.60;54.30;;;;;;5031410;28;20034;-61
2021/07/19 00:37:31;;;;;;;2.72;2.13;;;26.60;54.60;;;;;;5031564;28;20026;-61
2021/07/19 00:39:57;;;;;;;4.40;2.50;;;26.60;54.40;;;;;;5031200;28;20035;-61
2021/07/19 00:42:23;;;;;;;3.97;2.33;;;26.60;54.70;;;;;;5030395;28;20021;-61
2021/07/19 00:44:48;;;;;;;3.00;2.10;;;26.50;55.50;;;;;;5031195;28;20024;-61
2021/07/19 00:47:16;;;;;;;3.28;2.20;;;26.40;55.00;;;;;;5031367;28;20030;-62
2021/07/19 00:49:43;;;;;;;5.00;2.78;;;26.40;55.40;;;;;;5031258;28;20024;-62
2021/07/19 00:52:10;;;;;;;4.88;2.20;;;26.40;55.20;;;;;;5020987;28;20029;-62
2021/07/19 00:54:37;;;;;;;5.25;2.53;;;26.40;55.10;;;;;;5022086;28;20478;-60
2021/07/19 00:57:05;;;;;;;4.10;2.38;;;26.40;55.00;;;;;;5020870;28;20081;-61
2021/07/19 00:59:34;;;;;;;3.13;2.60;;;26.40;54.70;;;;;;5020601;28;20093;-62
2021/07/19 01:02:02;;;;;;;3.63;2.45;;;26.40;55.20;;;;;;5028879;28;20120;-62
2021/07/19 01:04:30;;;;;;;4.63;2.53;;;26.40;55.80;;;;;;5031391;28;20026;-62
2021/07/19 01:07:00;;;;;;;5.53;2.92;;;26.30;56.10;;;;;;5031134;28;20474;-61
2021/07/19 01:09:28;;;;;;;2.80;2.28;;;26.30;55.90;;;;;;5021514;28;20045;-60
2021/07/19 01:11:56;;;;;;;3.72;2.45;;;26.20;55.90;;;;;;5022357;28;20025;-61
2021/07/19 01:14:22;;;;;;;6.72;2.58;;;26.20;56.00;;;;;;5028926;28;20037;-60
2021/07/19 01:16:49;;;;;;;4.85;2.75;;;26.20;56.30;;;;;;5031166;28;20056;-61
2021/07/19 01:19:15;;;;;;;4.70;3.03;;;26.10;56.50;;;;;;5031085;28;20048;-60
2021/07/19 01:22:10;;;;;;;4.18;2.47;;;26.10;56.90;;;;;;5030830;28;20021;-61
2021/07/19 01:25:21;;;;;;;3.00;2.35;;;26.00;57.30;;;;;;5008136;28;20030;-60
2021/07/19 01:28:00;;;;;;;4.35;2.65;;;26.00;57.00;;;;;;5025746;28;20033;-62
2021/07/19 01:30:29;;;;;;;4.50;2.42;;;26.00;57.00;;;;;;5029600;28;20104;-62
2021/07/19 01:32:59;;;;;;;4.40;2.58;;;25.90;57.40;;;;;;5031067;28;20551;-61
2021/07/19 01:35:25;;;;;;;3.55;2.58;;;25.90;57.60;;;;;;5030952;28;20481;-62
2021/07/19 01:37:51;;;;;;;4.82;2.70;;;25.90;57.60;;;;;;5030886;28;20064;-61
2021/07/19 01:40:18;;;;;;;6.30;2.63;;;25.90;57.80;;;;;;5030803;28;20018;-61
2021/07/19 01:42:44;;;;;;;4.80;2.30;;;25.80;58.20;;;;;;5030582;28;20462;-61
2021/07/19 01:45:11;;;;;;;4.50;2.38;;;25.80;58.70;;;;;;5031450;28;20029;-62
2021/07/19 01:47:38;;;;;;;5.20;2.25;;;25.70;58.50;;;;;;5031033;28;20385;-62
2021/07/19 01:50:06;;;;;;;4.40;2.63;;;25.70;58.30;;;;;;5031127;28;20037;-61
2021/07/19 01:52:32;;;;;;;4.05;2.63;;;25.60;58.60;;;;;;5031397;28;20116;-62
2021/07/19 01:54:58;;;;;;;5.10;2.80;;;25.50;59.00;;;;;;5035679;28;20501;-61
2021/07/19 01:57:24;;;;;;;4.20;2.90;;;25.50;59.10;;;;;;5034569;28;20144;-63
2021/07/19 01:59:51;;;;;;;4.78;2.35;;;25.50;59.40;;;;;;5035773;28;20682;-63
2021/07/19 02:02:20;;;;;;;4.88;2.63;;;25.40;59.60;;;;;;5034841;28;20025;-62
2021/07/19 02:04:46;;;;;;;4.38;2.47;;;25.40;59.90;;;;;;5033210;28;20496;-62
2021/07/19 02:07:13;;;;;;;4.20;2.83;;;25.30;59.90;;;;;;5035389;28;20120;-62
2021/07/19 02:09:40;;;;;;;4.53;2.47;;;25.40;60.00;;;;;;5035156;28;20476;-62
2021/07/19 02:12:08;;;;;;;4.65;2.88;;;25.40;60.10;;;;;;5035297;28;20029;-61
2021/07/19 02:14:38;;;;;;;5.75;2.85;;;25.40;60.10;;;;;;5035074;28;20029;-61
2021/07/19 02:17:06;;;;;;;3.60;2.42;;;25.40;60.10;;;;;;5035541;28;20033;-62
2021/07/19 02:19:31;;;;;;;3.83;3.28;;;25.40;60.20;;;;;;5035078;28;20116;-62
2021/07/19 02:21:57;;;;;;;4.13;2.55;;;25.50;60.30;;;;;;5035341;28;20108;-61
2021/07/19 02:24:26;;;;;;;3.17;2.30;;;25.40;60.20;;;;;;5034772;28;20033;-61
2021/07/19 02:26:53;;;;;;;4.72;2.92;;;25.40;60.00;;;;;;5035178;28;20061;-61
2021/07/19 02:29:20;;;;;;;5.50;2.85;;;25.50;59.90;;;;;;5035169;28;20021;-63
2021/07/19 02:31:48;;;;;;;5.93;3.38;;;25.50;59.60;;;;;;5035068;28;20466;-62
2021/07/19 02:34:17;;;;;;;4.35;2.40;;;25.50;59.60;;;;;;5035008;28;20048;-62
2021/07/19 02:36:43;;;;;;;3.28;2.40;;;25.50;59.40;;;;;;5034745;28;20366;-62
2021/07/19 02:39:09;;;;;;;4.13;2.47;;;25.50;59.10;;;;;;5034587;28;20036;-62
2021/07/19 02:41:36;;;;;;;7.45;2.85;;;25.50;58.30;;;;;;5034564;28;20056;-62
2021/07/19 02:44:03;;;;;;;4.78;3.00;;;25.60;57.00;;;;;;5035072;28;20132;-62
2021/07/19 02:46:31;;;;;;;3.55;2.45;;;25.60;56.50;;;;;;5034650;28;20026;-62
2021/07/19 02:48:58;;;;;;;4.05;2.45;;;25.60;56.40;;;;;;5034665;28;20105;-61
2021/07/19 02:51:28;;;;;;;4.88;2.88;;;25.70;55.80;;;;;;5034328;28;20033;-62
2021/07/19 02:53:56;;;;;;;3.47;2.15;;;25.70;55.50;;;;;;5034565;28;20055;-61
2021/07/19 02:56:22;;;;;;;4.88;2.83;;;25.70;55.40;;;;;;5034279;28;20462;-61
2021/07/19 02:58:49;;;;;;;5.90;2.90;;;25.70;55.30;;;;;;5034469;28;20119;-61
2021/07/19 03:01:18;;;;;;;4.18;2.85;;;25.70;55.30;;;;;;5034016;28;20497;-62
2021/07/19 03:03:45;;;;;;;3.38;2.40;;;25.70;55.80;;;;;;5033652;28;20080;-61
2021/07/19 03:06:16;;;;;;;3.88;2.85;;;25.70;55.80;;;;;;5034101;28;20053;-61
2021/07/19 03:08:43;;;;;;;5.32;2.53;;;25.70;55.80;;;;;;5034559;28;20065;-62
2021/07/19 03:11:26;;;;;;;5.07;2.47;;;25.70;56.10;;;;;;5034417;28;20112;-61
2021/07/19 03:13:56;;;;;;;4.50;3.05;;;25.70;56.90;;;;;;5034131;28;20026;-61
2021/07/19 03:16:26;;;;;;;6.22;2.67;;;25.70;57.10;;;;;;5034212;28;20112;-62
2021/07/19 03:18:53;;;;;;;4.18;3.30;;;25.70;56.90;;;;;;5033838;28;20037;-61
2021/07/19 03:21:21;;;;;;;4.30;2.85;;;25.70;57.10;;;;;;5033989;28;20036;-61
2021/07/19 03:23:48;;;;;;;3.97;2.80;;;25.60;57.20;;;;;;5033961;28;20516;-61
2021/07/19 03:26:19;;;;;;;5.00;2.70;;;25.70;57.30;;;;;;5034051;28;20041;-62
2021/07/19 03:28:46;;;;;;;5.57;3.47;;;25.60;57.50;;;;;;5033487;28;20037;-62
2021/07/19 03:31:12;;;;;;;5.55;2.78;;;25.60;57.40;;;;;;5033735;28;20033;-62
2021/07/19 03:33:41;;;;;;;4.57;3.20;;;25.50;57.30;;;;;;5033938;28;20040;-62
2021/07/19 03:36:08;;;;;;;3.60;2.70;;;25.50;57.20;;;;;;5034076;28;20124;-61
2021/07/19 03:38:36;;;;;;;4.20;2.65;;;25.40;57.10;;;;;;5033577;28;20035;-61
2021/07/19 03:41:03;;;;;;;5.05;2.65;;;25.20;57.60;;;;;;5033963;28;20030;-61
2021/07/19 03:43:33;;;;;;;4.32;2.65;;;25.10;57.90;;;;;;5033413;28;20080;-61
2021/07/19 03:45:58;;;;;;;;;;;25.20;57.90;;;;;;5034075;28;20116;-62
2021/07/19 03:48:26;;;;;;;4.95;2.63;;;25.30;57.70;;;;;;5033787;28;19944;-62
2021/07/19 03:50:52;;;;;;;4.15;2.58;;;25.30;57.70;;;;;;5033363;28;20063;-62
2021/07/19 03:53:19;;;;;;;3.72;2.30;;;25.20;58.00;;;;;;5033664;28;20100;-61
2021/07/19 03:55:45;;;;;;;4.38;2.63;;;25.20;58.00;;;;;;5032933;28;20120;-61
2021/07/19 03:58:12;;;;;;;4.50;2.50;;;25.10;58.10;;;;;;5033123;28;20029;-61
2021/07/19 04:00:38;;;;;;;6.00;3.75;;;25.10;58.20;;;;;;5033440;28;20123;-61
2021/07/19 04:03:19;;;;;;;5.07;2.75;;;25.00;58.20;;;;;;5033479;28;20466;-61
2021/07/19 04:05:48;;;;;;;4.70;2.92;;;25.10;58.10;;;;;;5033370;28;20112;-61
2021/07/19 04:08:15;;;;;;;5.15;2.50;;;25.10;57.90;;;;;;5033351;28;20030;-61
2021/07/19 04:10:41;;;;;;;3.70;2.60;;;25.10;57.60;;;;;;5032877;28;20025;-61
2021/07/19 04:13:07;;;;;;;5.25;2.38;;;25.20;57.60;;;;;;5033244;28;20032;-61
2021/07/19 04:15:39;;;;;;;3.85;2.88;;;25.20;57.40;;;;;;5032782;28;20041;-62
2021/07/19 04:18:05;;;;;;;7.28;3.15;;;25.30;57.30;;;;;;5033256;28;20111;-62
2021/07/19 04:20:31;;;;;;;3.83;2.78;;;25.30;57.30;;;;;;5032803;28;20064;-61
2021/07/19 04:22:58;;;;;;;6.18;2.47;;;25.10;57.70;;;;;;5033175;28;20363;-61
2021/07/19 04:25:25;;;;;;;4.43;2.80;;;25.00;58.20;;;;;;5032834;28;20417;-61
2021/07/19 04:27:52;;;;;;;4.70;3.00;;;25.10;58.10;;;;;;5032793;28;20029;-61
2021/07/19 04:30:18;;;;;;;6.47;2.80;;;25.20;58.10;;;;;;5033182;28;20033;-61
2021/07/19 04:32:47;;;;;;;3.83;2.60;;;25.20;58.20;;;;;;5032631;28;20032;-61
2021/07/19 04:35:20;;;;;;;5.33;3.57;;;25.20;58.40;;;;;;5032801;28;20069;-61
2021/07/19 04:37:50;;;;;;;3.85;2.80;;;25.10;58.50;;;;;;5033035;28;20034;-61
2021/07/19 04:40:17;;;;;;;4.47;2.78;;;25.10;59.10;;;;;;5032871;28;20116;-61
2021/07/19 04:42:43;;;;;;;6.88;3.40;;;25.10;59.50;;;;;;5032701;28;20026;-62
2021/07/19 04:45:10;;;;;;;5.85;3.45;;;25.00;59.60;;;;;;5033072;28;20029;-62
2021/07/19 04:47:35;;;;;;;8.23;3.50;;;25.00;59.70;;;;;;5032489;28;20091;-62
2021/07/19 04:50:02;;;;;;;9.25;3.17;;;25.00;60.00;;;;;;5032720;28;20498;-61
2021/07/19 04:52:28;;;;;;;7.55;3.25;;;24.90;60.20;;;;;;5032186;28;20030;-61
2021/07/19 04:54:55;;;;;;;4.15;2.92;;;25.00;60.30;;;;;;5032848;28;20112;-61
2021/07/19 04:57:23;;;;;;;4.40;3.13;;;24.80;61.30;;;;;;5032301;28;20045;-61
2021/07/19 04:59:51;;;;;;;7.82;3.88;;;24.90;60.90;;;;;;5032788;28;20116;-61
2021/07/19 05:02:19;;;;;;;5.03;3.25;;;25.00;60.80;;;;;;5032630;28;20087;-61
2021/07/19 05:04:48;;;;;;;7.20;3.70;;;25.10;60.80;;;;;;5032367;28;20048;-61
2021/07/19 05:07:17;;;;;;;7.90;3.53;;;25.10;61.00;;;;;;5032367;28;20040;-61
2021/07/19 05:09:44;;;;;;;4.30;2.90;;;24.90;61.40;;;;;;5032430;28;20438;-61
2021/07/19 05:12:12;;;;;;;4.82;2.80;;;24.90;61.40;;;;;;5032738;28;20079;-61
2021/07/19 05:14:39;;;;;;;5.90;3.80;;;25.00;61.10;;;;;;5032443;28;20037;-61
2021/07/19 05:17:12;;;;;;;4.97;3.40;;;25.10;61.50;;;;;;5032426;28;20060;-60
2021/07/19 05:19:39;;;;;;;6.57;3.45;;;25.10;61.80;;;;;;5032062;28;20029;-61
2021/07/19 05:22:12;;;;;;;6.72;3.17;;;25.10;61.80;;;;;;5032578;28;20087;-61
2021/07/19 05:24:39;;;;;;;4.10;3.20;;;25.10;61.80;;;;;;5032221;28;20029;-60
2021/07/19 05:27:07;;;;;;;5.47;3.47;;;25.10;61.80;;;;;;5032648;28;20040;-60
2021/07/19 05:29:34;;;;;;;6.00;2.88;;;25.20;61.60;;;;;;5036019;28;20067;-61
2021/07/19 05:32:01;;;;;;;5.80;3.20;;;25.30;61.00;;;;;;5036093;28;20047;-61
2021/07/19 05:34:27;;;;;;;4.97;2.95;;;25.40;61.30;;;;;;5035644;28;20415;-60
2021/07/19 05:36:52;;;;;;;5.78;3.15;;;25.40;61.30;;;;;;5036147;28;20029;-61
2021/07/19 05:39:18;;;;;;;6.40;3.17;;;25.50;60.70;;;;;;5036047;28;20108;-61
2021/07/19 05:41:44;;;;;;;7.10;3.22;;;25.50;60.20;;;;;;5035775;28;20060;-61
2021/07/19 05:44:10;;;;;;;5.38;3.05;;;25.50;59.90;;;;;;5035891;28;20040;-60
2021/07/19 05:46:36;;;;;;;7.72;2.83;;;25.60;59.80;;;;;;5035611;28;20034;-61
2021/07/19 05:49:02;;;;;;;3.75;2.65;;;25.70;59.30;;;;;;5035718;28;20361;-61
2021/07/19 05:51:28;;;;;;;4.43;2.80;;;25.70;59.50;;;;;;5035867;28;20045;-61
2021/07/19 05:53:54;;;;;;;5.38;2.90;;;25.70;59.00;;;;;;5035718;28;20033;-61
2021/07/19 05:56:19;;;;;;;6.03;3.15;;;25.60;59.20;;;;;;5035455;28;20053;-60
2021/07/19 05:58:45;;;;;;;3.92;2.90;;;25.70;58.90;;;;;;5035488;28;20036;-61
2021/07/19 06:01:11;;;;;;;5.88;3.80;;;25.60;58.90;;;;;;5035176;28;20026;-60
2021/07/19 06:03:36;;;;;;;5.40;3.30;;;26.10;58.10;;;;;;5035457;28;20030;-61
2021/07/19 06:06:02;;;;;;;5.97;3.20;;;27.40;54.70;;;;;;5035508;28;20021;-61
2021/07/19 06:08:28;;;;;;;4.80;3.05;;;28.40;51.50;;;;;;5035417;28;20024;-59
2021/07/19 06:10:53;;;;;;;4.60;3.35;;;28.80;50.00;;;;;;5035522;28;20109;-59
2021/07/19 06:13:19;;;;;;;4.70;3.30;;;28.90;49.90;;;;;;5035461;28;20025;-59
2021/07/19 06:15:45;;;;;;;6.00;2.85;;;29.20;49.10;;;;;;5035327;28;20079;-60
2021/07/19 06:18:11;;;;;;;4.95;3.05;;;28.60;49.80;;;;;;5035096;28;20060;-59
2021/07/19 06:20:37;;;;;;;5.60;2.60;;;28.20;51.40;;;;;;5035414;28;20026;-58
2021/07/19 06:23:03;;;;;;;7.97;3.60;;;27.80;53.30;;;;;;5034948;28;20057;-60
2021/07/19 06:25:34;;;;;;;7.40;3.63;;;27.70;53.20;;;;;;5035146;28;20040;-59
2021/07/19 06:28:01;;;;;;;4.93;2.88;;;27.80;53.10;;;;;;5034781;28;20112;-59
2021/07/19 06:30:27;;;;;;;9.25;3.72;;;27.80;53.00;;;;;;5035027;28;20036;-59
2021/07/19 06:32:54;;;;;;;5.22;3.65;;;27.80;53.00;;;;;;5034627;28;20037;-61
2021/07/19 06:35:20;;;;;;;7.22;3.55;;;27.60;53.70;;;;;;5035150;28;20037;-62
2021/07/19 06:37:46;;;;;;;6.40;3.53;;;27.60;53.70;;;;;;5034881;28;20083;-61
2021/07/19 06:40:12;;;;;;;6.40;3.80;;;27.60;54.20;;;;;;5034916;28;20022;-61
2021/07/19 06:42:38;;;;;;;5.13;3.22;;;27.60;54.30;;;;;;5034800;28;20022;-61
2021/07/19 06:45:09;;;;;;;4.80;3.00;;;27.40;55.10;;;;;;5034573;28;20056;-62
2021/07/19 06:47:35;;;;;;;6.93;3.13;;;27.40;54.60;;;;;;5034763;28;20047;-62
2021/07/19 06:50:01;;;;;;;4.65;3.05;;;27.40;54.00;;;;;;5035008;28;20442;-61
2021/07/19 06:52:27;;;;;;;4.63;3.05;;;27.60;53.70;;;;;;5034652;28;20036;-61
2021/07/19 06:54:53;;;;;;;6.53;2.90;;;27.60;53.10;;;;;;5034165;28;20034;-61
2021/07/19 06:57:19;;;;;;;4.07;3.05;;;27.80;53.10;;;;;;5034086;28;20080;-61
2021/07/19 06:59:46;;;;;;;4.43;3.70;;;28.00;52.90;;;;;;5033960;28;20045;-61
2021/07/19 07:02:11;;;;;;;5.80;3.55;;;28.00;53.30;;;;;;5034551;28;20548;-61
2021/07/19 07:04:37;;;;;;;6.25;4.30;;;28.00;53.20;;;;;;5034140;28;20033;-61
2021/07/19 07:07:03;;;;;;;5.53;4.10;;;27.90;53.60;;;;;;5034103;28;20037;-61
2021/07/19 07:09:29;;;;;;;6.85;4.15;;;27.90;53.60;;;;;;5033989;28;20035;-61
2021/07/19 07:11:54;;;;;;;10.25;3.70;;;27.80;53.80;;;;;;5033728;28;20116;-61
2021/07/19 07:14:20;;;;;;;8.18;4.97;;;27.70;54.70;;;;;;5033795;28;20033;-60
2021/07/19 07:16:46;;;;;;;6.47;3.80;;;27.60;54.90;;;;;;5034302;28;20516;-59
2021/07/19 07:19:12;;;;;;;6.95;4.07;;;27.70;55.10;;;;;;5033998;28;20040;-62
2021/07/19 07:21:37;;;;;;;6.45;4.13;;;27.80;55.00;;;;;;5033751;28;20029;-63
2021/07/19 07:24:03;;;;;;;7.78;4.45;;;27.80;55.50;;;;;;5033916;28;20072;-62
2021/07/19 07:26:29;;;;;;;6.68;5.00;;;27.70;56.10;;;;;;5033131;28;20109;-62
2021/07/19 07:28:55;;;;;;;7.47;6.10;;;27.60;56.60;;;;;;5032942;28;20116;-63
2021/07/19 07:31:26;;;;;;;7.93;5.57;;;27.60;56.50;;;;;;5033945;28;20036;-61
2021/07/19 07:33:55;;;;;;;9.15;6.13;;;27.60;56.50;;;;;;5034033;28;20083;-61
2021/07/19 07:36:21;;;;;;;8.32;6.22;;;27.60;56.80;;;;;;5032381;28;20060;-61
2021/07/19 07:38:47;;;;;;;9.75;6.55;;;27.40;57.40;;;;;;5033594;28;20104;-62
2021/07/19 07:41:13;;;;;;;7.85;5.22;;;27.50;57.00;;;;;;5033260;28;20053;-62
2021/07/19 07:43:38;;;;;;;7.82;5.80;;;27.60;57.00;;;;;;5033395;28;20029;-58
2021/07/19 07:46:04;;;;;;;7.82;5.43;;;27.40;56.90;;;;;;5033438;28;20498;-58
2021/07/19 07:48:32;;;;;;;10.63;6.85;;;27.40;57.00;;;;;;5032167;28;20025;-58
2021/07/19 07:50:58;;;;;;;8.70;5.50;;;27.50;57.30;;;;;;5032473;28;20473;-59
2021/07/19 07:53:24;;;;;;;8.45;6.07;;;27.50;57.60;;;;;;5033022;28;20033;-59
2021/07/19 07:55:50;;;;;;;8.10;6.80;;;27.60;58.30;;;;;;5032197;28;20073;-59
2021/07/19 07:58:16;;;;;;;7.30;6.05;;;27.60;59.00;;;;;;5032864;28;20052;-59
2021/07/19 08:00:41;;;;;;;7.43;6.60;;;27.60;59.30;;;;;;5033578;28;20147;-59
2021/07/19 08:03:07;;;;;;;10.70;6.63;;;27.70;58.70;;;;;;5033286;28;20021;-59
2021/07/19 08:05:33;;;;;;;8.23;5.78;;;27.60;59.40;;;;;;5033522;28;20087;-59
2021/07/19 08:07:59;;;;;;;6.60;5.30;;;27.60;58.50;;;;;;5033111;28;20028;-60
2021/07/19 08:10:25;;;;;;;7.55;5.63;;;27.90;58.30;;;;;;5033347;28;20520;-58
2021/07/19 08:12:51;;;;;;;9.75;6.68;;;28.20;57.60;;;;;;5033028;28;20021;-58
2021/07/19 08:15:17;;;;;;;9.50;6.38;;;28.30;57.20;;;;;;5033279;28;20061;-58
2021/07/19 08:17:43;;;;;;;7.60;5.22;;;28.20;57.50;;;;;;5033280;28;20120;-58
2021/07/19 08:20:10;;;;;;;8.70;4.32;;;28.30;57.50;;;;;;5033186;28;20028;-58
2021/07/19 08:22:36;;;;;;;7.15;5.10;;;28.40;56.70;;;;;;5032894;28;20102;-58
2021/07/19 08:25:03;;;;;;;7.05;4.78;;;28.30;56.40;;;;;;5032965;28;20057;-59
2021/07/19 08:27:28;;;;;;;6.55;4.72;;;28.30;56.60;;;;;;5032534;28;20056;-59
2021/07/19 08:29:54;;;;;;;7.70;5.85;;;28.40;56.40;;;;;;5033224;28;20457;-58
2021/07/19 08:32:20;;;;;;;8.20;5.28;;;28.40;56.10;;;;;;5032914;28;20374;-58
2021/07/19 08:34:46;;;;;;;8.02;4.60;;;28.50;56.10;;;;;;5032736;28;20075;-58
2021/07/19 08:37:13;;;;;;;8.13;5.22;;;28.80;55.90;;;;;;5033099;28;20047;-58
2021/07/19 08:39:40;;;;;;;8.80;4.80;;;28.80;55.10;;;;;;5032567;28;20396;-58
2021/07/19 08:42:10;;;;;;;5.97;4.45;;;28.90;54.70;;;;;;5033024;28;20067;-58
2021/07/19 08:44:36;;;;;;;7.90;4.07;;;29.00;54.40;;;;;;5032875;28;20029;-59
2021/07/19 08:47:05;;;;;;;7.85;6.00;;;29.10;53.80;;;;;;5033185;28;20036;-59
2021/07/19 08:49:32;;;;;;;6.00;3.95;;;29.10;53.90;;;;;;5032413;28;20398;-59
2021/07/19 08:51:59;;;;;;;9.48;5.15;;;29.20;53.80;;;;;;5032781;28;20100;-59
2021/07/19 08:54:27;;;;;;;10.57;7.03;;;29.20;53.00;;;;;;5032401;28;20026;-59
2021/07/19 08:56:56;;;;;;;12.18;6.10;;;29.10;53.90;;;;;;5032420;28;20084;-58
2021/07/19 08:59:22;;;;;;;8.63;4.80;;;28.90;55.20;;;;;;5032582;28;20061;-58
2021/07/19 09:01:47;;;;;;;7.78;4.75;;;28.90;54.50;;;;;;5032777;28;20056;-58
2021/07/19 09:04:18;;;;;;;7.22;3.85;;;28.90;54.30;;;;;;5036407;28;20473;-58
2021/07/19 09:06:45;;;;;;;6.15;3.50;;;28.80;53.60;;;;;;5036595;28;20037;-59
2021/07/19 09:09:10;;;;;;;4.68;4.00;;;28.80;52.10;;;;;;5036302;28;20156;-59
2021/07/19 09:11:48;;;;;;;5.85;4.57;;;29.00;53.30;;;;;;5036834;28;20137;-59
2021/07/19 09:14:14;;;;;;;5.88;4.05;;;29.20;53.30;;;;;;5036518;28;20033;-59
2021/07/19 09:16:49;;;;;;;6.18;4.63;;;29.30;53.10;;;;;;5036476;28;20021;-59
2021/07/19 09:19:20;;;;;;;5.15;3.67;;;29.30;51.40;;;;;;5036465;28;20112;-59
2021/07/19 09:21:48;;;;;;;5.13;2.85;;;29.20;50.10;;;;;;5036456;28;20025;-59
2021/07/19 09:24:17;;;;;;;3.95;3.53;;;29.30;50.50;;;;;;5036482;28;20055;-59
2021/07/19 09:26:45;;;;;;;5.10;3.67;;;29.20;51.10;;;;;;5036140;28;20018;-60
2021/07/19 09:29:14;;;;;;;8.18;3.97;;;29.40;51.60;;;;;;5036281;28;20032;-59
2021/07/19 09:31:49;;;;;;;5.50;3.42;;;29.40;50.00;;;;;;5036477;28;20029;-59
2021/07/19 09:34:25;;;;;;;4.38;3.17;;;29.30;49.60;;;;;;5036176;28;20033;-59
2021/07/19 09:37:06;;;;;;;5.85;4.35;;;29.50;49.30;;;;;;5036109;28;20026;-59
2021/07/19 09:39:54;;;;;;;5.28;3.85;;;29.40;51.10;;;;;;5035892;28;20026;-62
2021/07/19 09:42:27;;;;;;;5.13;3.17;;;29.60;51.20;;;;;;5035823;28;20026;-59
2021/07/19 09:44:55;;;;;;;6.43;3.33;;;29.80;49.10;;;;;;5036440;28;20045;-58
2021/07/19 09:47:41;;;;;;;6.85;3.88;;;29.70;49.80;;;;;;5036016;28;20100;-59
2021/07/19 09:50:11;;;;;;;6.35;4.10;;;29.80;50.20;;;;;;5036287;28;20025;-59
2021/07/19 09:52:36;;;;;;;6.05;3.30;;;29.90;49.80;;;;;;5035365;28;20095;-59
2021/07/19 09:55:03;;;;;;;5.13;3.90;;;29.80;49.70;;;;;;5035465;28;20486;-59
2021/07/19 09:57:29;;;;;;;4.72;3.13;;;29.70;48.70;;;;;;5033485;28;20046;-59
2021/07/19 09:59:57;;;;;;;4.72;3.33;;;29.80;48.30;;;;;;5034602;28;20025;-59
2021/07/19 10:02:37;;;;;;;5.13;3.83;;;29.60;48.10;;;;;;5034289;28;20392;-59
2021/07/19 10:05:05;;;;;;;7.03;3.00;;;29.70;48.10;;;;;;5034410;28;20029;-59
2021/07/19 10:07:30;;;;;;;4.82;2.85;;;29.90;47.90;;;;;;5034208;28;20258;-59
2021/07/19 10:09:58;;;;;;;5.43;3.00;;;30.00;47.50;;;;;;5034617;28;20108;-59
2021/07/19 10:12:24;;;;;;;4.50;3.78;;;30.30;47.60;;;;;;5033984;28;20029;-59
2021/07/19 10:14:51;;;;;;;4.95;3.95;;;30.10;49.50;;;;;;5033652;28;20041;-59
2021/07/19 10:17:17;;;;;;;7.38;4.05;;;30.00;50.70;;;;;;5033900;28;20369;-59
2021/07/19 10:19:43;;;;;;;4.88;3.72;;;29.80;50.80;;;;;;5034216;28;20108;-59
2021/07/19 10:22:13;;;;;;;6.03;3.20;;;29.90;50.20;;;;;;5033804;28;20417;-59
2021/07/19 10:24:43;;;;;;;7.47;2.88;;;30.00;48.80;;;;;;5034378;28;20382;-59
2021/07/19 10:27:19;;;;;;;5.05;3.20;;;29.90;47.70;;;;;;5033957;28;20032;-59
2021/07/19 10:29:46;;;;;;;5.55;2.83;;;30.00;48.20;;;;;;5034263;28;20025;-59
2021/07/19 10:32:15;;;;;;;4.78;3.40;;;30.10;47.20;;;;;;5033870;28;20033;-60
2021/07/19 10:34:42;;;;;;;4.70;2.83;;;30.00;46.50;;;;;;5033713;28;20087;-59
2021/07/19 10:37:15;;;;;;;5.93;3.20;;;29.70;47.30;;;;;;5034096;28;20252;-59
2021/07/19 10:39:43;;;;;;;5.15;2.97;;;30.00;48.20;;;;;;5033491;28;20048;-58
2021/07/19 10:42:11;;;;;;;4.93;2.85;;;30.00;46.60;;;;;;5033730;28;20479;-59
2021/07/19 10:44:40;;;;;;;3.83;2.47;;;30.10;46.80;;;;;;5033450;28;20041;-59
2021/07/19 10:47:16;;;;;;;5.75;3.17;;;29.90;46.30;;;;;;5033291;28;20067;-58
2021/07/19 10:50:00;;;;;;;6.95;2.78;;;30.00;46.60;;;;;;5033314;28;20080;-59
2021/07/19 10:52:35;;;;;;;5.05;2.60;;;30.10;47.20;;;;;;5033551;28;20017;-59
2021/07/19 10:55:02;;;;;;;4.32;2.90;;;30.10;46.10;;;;;;5033394;28;20030;-59
2021/07/19 10:57:41;;;;;;;7.07;3.28;;;30.30;46.40;;;;;;4993038;28;1171890;-59
2021/07/19 11:00:15;;;;;;;3.28;2.90;;;30.30;46.30;;;;;;5034779;28;20112;-59
2021/07/19 11:02:41;;;;;;;3.92;2.83;;;30.40;45.80;;;;;;5034788;28;20401;-59
2021/07/19 11:05:08;;;;;;;3.25;2.25;;;30.00;44.90;;;;;;5034582;28;20466;-58
2021/07/19 11:07:44;;;;;;;4.55;3.13;;;30.10;45.40;;;;;;5034492;28;20087;-59
2021/07/19 11:10:28;;;;;;;4.95;3.33;;;30.40;47.80;;;;;;5034128;28;20061;-57
2021/07/19 11:12:58;;;;;;;6.15;4.22;;;30.50;48.90;;;;;;5033906;28;20481;-58
2021/07/19 11:15:37;;;;;;;;;;;30.50;49.30;;;;;;5034140;28;20033;-58
2021/07/19 11:18:17;;;;;;;6.07;4.15;;;30.40;49.00;;;;;;5034071;28;19912;-59
2021/07/19 11:20:45;;;;;;;10.27;4.68;;;30.40;48.90;;;;;;5033821;28;20034;-59
2021/07/19 11:23:12;;;;;;;8.95;4.15;;;30.40;48.90;;;;;;5034040;28;20496;-59
2021/07/19 11:25:42;;;;;;;5.45;3.78;;;30.20;48.30;;;;;;5033170;28;20113;-59
2021/07/19 11:28:21;;;;;;;4.78;3.15;;;30.10;48.60;;;;;;5033663;28;20028;-59
2021/07/19 11:31:06;;;;;;;6.55;4.00;;;30.20;48.10;;;;;;5033390;28;20033;-59
2021/07/19 11:33:38;;;;;;;7.60;4.18;;;30.10;48.40;;;;;;5033876;28;20036;-59
2021/07/19 11:36:15;;;;;;;4.63;3.80;;;30.20;48.30;;;;;;5033563;28;20045;-58
2021/07/19 11:38:40;;;;;;;4.82;3.55;;;30.10;47.80;;;;;;5033680;28;20029;-60
2021/07/19 11:41:17;;;;;;;4.72;3.72;;;30.10;48.20;;;;;;5033558;28;20091;-59
2021/07/19 11:43:44;;;;;;;6.10;3.70;;;30.20;48.00;;;;;;5026777;28;20021;-58
2021/07/19 11:46:10;;;;;;;12.02;9.60;;;30.10;48.00;;;;;;5022250;28;20390;-58
2021/07/19 11:48:37;;;;;;;13.88;9.45;;;30.00;49.10;;;;;;5022348;28;20036;-58
2021/07/19 11:51:03;;;;;;;19.45;16.50;;;30.30;50.00;;;;;;5024091;28;20038;-58
2021/07/19 11:53:29;;;;;;;23.17;18.50;;;30.30;49.20;;;;;;5031862;28;20447;-60
2021/07/19 11:56:01;;;;;;;55.47;45.45;;;30.20;49.30;;;;;;5030885;28;20085;-58
2021/07/19 11:58:27;;;;;;;13.45;10.57;;;30.20;49.00;;;;;;5032621;28;20035;-58
2021/07/19 12:00:54;;;;;;;18.55;16.05;;;30.30;49.40;;;;;;5031400;28;20030;-59
2021/07/19 12:03:20;;;;;;;10.23;5.95;;;30.40;48.80;;;;;;5031259;28;20033;-58
2021/07/19 12:05:57;;;;;;;9.45;4.90;;;30.30;48.40;;;;;;5032635;28;20477;-58
2021/07/19 12:08:28;;;;;;;7.22;3.50;;;30.20;48.90;;;;;;5032766;28;20032;-58
2021/07/19 12:11:08;;;;;;;5.13;3.95;;;30.50;49.00;;;;;;5032305;28;20462;-58
2021/07/19 12:13:36;;;;;;;5.10;3.80;;;30.70;48.50;;;;;;5032554;28;20029;-58
2021/07/19 12:16:03;;;;;;;6.93;4.35;;;30.70;48.80;;;;;;5032520;28;20504;-58
2021/07/19 12:18:40;;;;;;;5.25;4.30;;;30.80;48.20;;;;;;5032846;28;20041;-58
2021/07/19 12:21:10;;;;;;;5.13;3.60;;;30.80;47.20;;;;;;5032913;28;20458;-58
2021/07/19 12:24:03;;;;;;;7.32;3.78;;;30.70;47.50;;;;;;5033128;28;20018;-58
2021/07/19 12:26:31;;;;;;;7.13;4.15;;;30.70;47.60;;;;;;5031074;28;20432;-60
2021/07/19 12:29:02;;;;;;;5.35;3.85;;;30.70;47.70;;;;;;5032592;28;20025;-59
2021/07/19 12:31:33;;;;;;;6.38;3.90;;;30.70;46.80;;;;;;5032749;28;20072;-58
2021/07/19 12:34:36;;;;;;;5.93;4.32;;;30.70;47.10;;;;;;5032833;28;20075;-58
2021/07/19 12:37:08;;;;;;;8.40;3.90;;;30.70;47.60;;;;;;5032640;28;20047;-58
2021/07/19 12:39:58;;;;;;;7.93;4.03;;;30.80;47.90;;;;;;5032668;28;20021;-58
2021/07/19 12:42:28;;;;;;;5.47;3.85;;;30.70;47.90;;;;;;5032871;28;20038;-58
2021/07/19 12:44:58;;;;;;;6.40;3.40;;;30.80;47.70;;;;;;5032956;28;20065;-58
2021/07/19 12:47:28;;;;;;;4.13;3.22;;;30.80;47.60;;;;;;5032689;28;20037;-59
2021/07/19 12:49:53;;;;;;;4.97;3.72;;;31.00;47.00;;;;;;5032851;28;20037;-58
2021/07/19 12:52:20;;;;;;;4.65;3.35;;;31.00;46.90;;;;;;5032557;28;20497;-58